sensor_id;sensor_type;location;lat;lon;timestamp;pressure;altitude;pressure_sealevel;temperature;humidity
74778;BME280;63298;53.164;8.610;2024-03-06T00:01:48;102156.19;;;5.47;71.55
74778;BME280;63298;53.164;8.610;2024-03-06T00:04:14;102151.91;;;5.44;71.16
74778;BME280;63298;53.164;8.610;2024-03-06T00:06:39;102152.75;;;5.45;71.31
74778;BME280;63298;53.164;8.610;2024-03-06T00:09:05;102160.63;;;5.48;70.36
74778;BME280;63298;53.164;8.610;2024-03-06T00:11:30;102150.88;;;5.45;70.86
74778;BME280;63298;53.164;8.610;2024-03-06T00:13:56;102155.34;;;5.46;70.72
74778;BME280;63298;53.164;8.610;2024-03-06T00:16:21;102144.72;;;5.43;71.68
74778;BME280;63298;53.164;8.610;2024-03-06T00:18:47;102167.31;;;5.45;70.91
74778;BME280;63298;53.164;8.610;2024-03-06T00:21:12;102161.66;;;5.47;70.83
74778;BME280;63298;53.164;8.610;2024-03-06T00:23:38;102152.59;;;5.46;70.89
74778;BME280;63298;53.164;8.610;2024-03-06T00:26:03;102166.25;;;5.54;71.53
74778;BME280;63298;53.164;8.610;2024-03-06T00:28:29;102164.38;;;5.55;71.27
74778;BME280;63298;53.164;8.610;2024-03-06T00:30:55;102157.41;;;5.52;70.74
74778;BME280;63298;53.164;8.610;2024-03-06T00:33:20;102157.72;;;5.49;71.44
74778;BME280;63298;53.164;8.610;2024-03-06T00:35:46;102161.31;;;5.50;70.90
74778;BME280;63298;53.164;8.610;2024-03-06T00:38:11;102168.16;;;5.54;71.30
74778;BME280;63298;53.164;8.610;2024-03-06T00:40:36;102175.50;;;5.53;71.54
74778;BME280;63298;53.164;8.610;2024-03-06T00:43:02;102168.66;;;5.49;71.32
74778;BME280;63298;53.164;8.610;2024-03-06T00:45:27;102162.88;;;5.52;71.41
74778;BME280;63298;53.164;8.610;2024-03-06T00:48:05;102170.91;;;5.46;71.36
74778;BME280;63298;53.164;8.610;2024-03-06T00:50:32;102183.03;;;5.43;71.65
74778;BME280;63298;53.164;8.610;2024-03-06T00:52:58;102193.66;;;5.46;71.55
74778;BME280;63298;53.164;8.610;2024-03-06T00:55:23;102199.78;;;5.48;71.65
74778;BME280;63298;53.164;8.610;2024-03-06T00:57:57;102203.56;;;5.55;71.42
74778;BME280;63298;53.164;8.610;2024-03-06T01:00:22;102197.38;;;5.53;71.14
74778;BME280;63298;53.164;8.610;2024-03-06T01:02:48;102193.78;;;5.53;71.78
74778;BME280;63298;53.164;8.610;2024-03-06T01:05:16;102204.75;;;5.53;72.05
74778;BME280;63298;53.164;8.610;2024-03-06T01:07:41;102196.03;;;5.49;71.30
74778;BME280;63298;53.164;8.610;2024-03-06T01:10:07;102196.72;;;5.51;71.30
74778;BME280;63298;53.164;8.610;2024-03-06T01:12:33;102191.41;;;5.50;71.47
74778;BME280;63298;53.164;8.610;2024-03-06T01:14:58;102208.34;;;5.53;71.81
74778;BME280;63298;53.164;8.610;2024-03-06T01:17:24;102211.06;;;5.53;71.76
74778;BME280;63298;53.164;8.610;2024-03-06T01:19:50;102216.03;;;5.50;71.02
74778;BME280;63298;53.164;8.610;2024-03-06T01:22:16;102223.56;;;5.56;71.81
74778;BME280;63298;53.164;8.610;2024-03-06T01:24:42;102205.25;;;5.48;71.99
74778;BME280;63298;53.164;8.610;2024-03-06T01:27:08;102202.72;;;5.47;71.99
74778;BME280;63298;53.164;8.610;2024-03-06T01:29:33;102221.34;;;5.51;71.38
74778;BME280;63298;53.164;8.610;2024-03-06T01:31:59;102228.19;;;5.55;72.20
74778;BME280;63298;53.164;8.610;2024-03-06T01:34:25;102228.34;;;5.54;71.95
74778;BME280;63298;53.164;8.610;2024-03-06T01:36:51;102222.88;;;5.46;72.02
74778;BME280;63298;53.164;8.610;2024-03-06T01:39:16;102221.00;;;5.46;71.77
74778;BME280;63298;53.164;8.610;2024-03-06T01:41:46;102203.75;;;5.38;72.14
74778;BME280;63298;53.164;8.610;2024-03-06T01:44:12;102226.28;;;5.48;72.02
74778;BME280;63298;53.164;8.610;2024-03-06T01:46:38;102220.47;;;5.43;71.95
74778;BME280;63298;53.164;8.610;2024-03-06T01:49:04;102225.28;;;5.49;71.57
74778;BME280;63298;53.164;8.610;2024-03-06T01:51:30;102216.91;;;5.42;72.14
74778;BME280;63298;53.164;8.610;2024-03-06T01:53:56;102226.28;;;5.48;71.39
74778;BME280;63298;53.164;8.610;2024-03-06T01:56:22;102230.41;;;5.44;71.70
74778;BME280;63298;53.164;8.610;2024-03-06T01:58:48;102229.38;;;5.45;71.79
74778;BME280;63298;53.164;8.610;2024-03-06T02:01:15;102239.81;;;5.49;71.88
74778;BME280;63298;53.164;8.610;2024-03-06T02:03:41;102233.66;;;5.47;72.44
74778;BME280;63298;53.164;8.610;2024-03-06T02:06:09;102216.56;;;5.37;72.19
74778;BME280;63298;53.164;8.610;2024-03-06T02:08:35;102220.31;;;5.36;72.55
74778;BME280;63298;53.164;8.610;2024-03-06T02:11:00;102222.19;;;5.36;72.47
74778;BME280;63298;53.164;8.610;2024-03-06T02:13:26;102230.91;;;5.39;71.98
74778;BME280;63298;53.164;8.610;2024-03-06T02:15:51;102230.75;;;5.33;72.49
74778;BME280;63298;53.164;8.610;2024-03-06T02:18:17;102238.25;;;5.39;72.20
74778;BME280;63298;53.164;8.610;2024-03-06T02:20:42;102215.84;;;5.35;72.23
74778;BME280;63298;53.164;8.610;2024-03-06T02:23:08;102220.97;;;5.30;72.68
74778;BME280;63298;53.164;8.610;2024-03-06T02:25:33;102219.63;;;5.34;72.44
74778;BME280;63298;53.164;8.610;2024-03-06T02:27:59;102219.97;;;5.31;72.26
74778;BME280;63298;53.164;8.610;2024-03-06T02:30:24;102213.97;;;5.28;72.35
74778;BME280;63298;53.164;8.610;2024-03-06T02:32:50;102232.63;;;5.40;72.48
74778;BME280;63298;53.164;8.610;2024-03-06T02:35:18;102232.63;;;5.40;72.17
74778;BME280;63298;53.164;8.610;2024-03-06T02:37:44;102216.22;;;5.32;71.79
74778;BME280;63298;53.164;8.610;2024-03-06T02:40:12;102219.28;;;5.37;72.10
74778;BME280;63298;53.164;8.610;2024-03-06T02:42:38;102203.56;;;5.31;72.41
74778;BME280;63298;53.164;8.610;2024-03-06T02:45:04;102211.09;;;5.37;72.29
74778;BME280;63298;53.164;8.610;2024-03-06T02:47:29;102206.94;;;5.25;72.72
74778;BME280;63298;53.164;8.610;2024-03-06T02:49:55;102203.19;;;5.26;72.33
74778;BME280;63298;53.164;8.610;2024-03-06T02:52:20;102209.69;;;5.25;72.42
74778;BME280;63298;53.164;8.610;2024-03-06T02:54:45;102209.88;;;5.32;72.60
74778;BME280;63298;53.164;8.610;2024-03-06T02:57:11;102193.94;;;5.19;72.77
74778;BME280;63298;53.164;8.610;2024-03-06T02:59:39;102197.72;;;5.18;72.40
74778;BME280;63298;53.164;8.610;2024-03-06T03:02:07;102203.19;;;5.18;72.33
74778;BME280;63298;53.164;8.610;2024-03-06T03:04:35;102189.34;;;5.11;73.22
74778;BME280;63298;53.164;8.610;2024-03-06T03:07:01;102187.44;;;5.12;72.79
74778;BME280;63298;53.164;8.610;2024-03-06T03:09:26;102200.78;;;5.15;72.53
74778;BME280;63298;53.164;8.610;2024-03-06T03:11:52;102204.38;;;5.15;72.32
74778;BME280;63298;53.164;8.610;2024-03-06T03:14:17;102211.06;;;5.21;72.55
74778;BME280;63298;53.164;8.610;2024-03-06T03:16:44;102219.78;;;5.16;72.12
74778;BME280;63298;53.164;8.610;2024-03-06T03:19:09;102231.91;;;5.22;72.24
74778;BME280;63298;53.164;8.610;2024-03-06T03:21:35;102226.97;;;5.17;72.78
74778;BME280;63298;53.164;8.610;2024-03-06T03:24:00;102224.72;;;5.13;72.41
74778;BME280;63298;53.164;8.610;2024-03-06T03:26:26;102218.56;;;5.11;72.22
74778;BME280;63298;53.164;8.610;2024-03-06T03:28:51;102227.81;;;5.18;72.22
74778;BME280;63298;53.164;8.610;2024-03-06T03:31:17;102229.16;;;5.14;72.22
74778;BME280;63298;53.164;8.610;2024-03-06T03:33:42;102228.44;;;5.04;72.67
74778;BME280;63298;53.164;8.610;2024-03-06T03:36:09;102246.41;;;5.14;72.80
74778;BME280;63298;53.164;8.610;2024-03-06T03:38:37;102241.75;;;4.99;72.98
74778;BME280;63298;53.164;8.610;2024-03-06T03:41:09;102256.41;;;4.90;72.62
74778;BME280;63298;53.164;8.610;2024-03-06T03:43:34;102267.06;;;5.01;72.19
74778;BME280;63298;53.164;8.610;2024-03-06T03:46:00;102258.66;;;4.94;72.53
74778;BME280;63298;53.164;8.610;2024-03-06T03:48:28;102259.72;;;5.01;72.20
74778;BME280;63298;53.164;8.610;2024-03-06T03:50:53;102249.94;;;4.99;72.74
74778;BME280;63298;53.164;8.610;2024-03-06T03:53:19;102254.56;;;4.98;72.39
74778;BME280;63298;53.164;8.610;2024-03-06T03:55:47;102259.16;;;4.90;72.33
74778;BME280;63298;53.164;8.610;2024-03-06T03:58:13;102264.69;;;4.98;72.86
74778;BME280;63298;53.164;8.610;2024-03-06T04:00:38;102246.69;;;4.87;72.78
74778;BME280;63298;53.164;8.610;2024-03-06T04:03:04;102254.53;;;4.90;72.42
74778;BME280;63298;53.164;8.610;2024-03-06T04:05:29;102260.00;;;4.90;72.79
74778;BME280;63298;53.164;8.610;2024-03-06T04:07:55;102277.28;;;4.99;72.52
74778;BME280;63298;53.164;8.610;2024-03-06T04:10:21;102266.34;;;4.91;72.39
74778;BME280;63298;53.164;8.610;2024-03-06T04:12:46;102262.22;;;4.87;72.66
74778;BME280;63298;53.164;8.610;2024-03-06T04:15:12;102276.56;;;4.89;72.77
74778;BME280;63298;53.164;8.610;2024-03-06T04:17:38;102276.91;;;4.86;72.49
74778;BME280;63298;53.164;8.610;2024-03-06T04:20:09;102285.63;;;4.81;73.16
74778;BME280;63298;53.164;8.610;2024-03-06T04:22:44;102270.03;;;4.73;73.58
74778;BME280;63298;53.164;8.610;2024-03-06T04:25:10;102285.59;;;4.73;73.55
74778;BME280;63298;53.164;8.610;2024-03-06T04:27:38;102299.28;;;4.81;72.64
74778;BME280;63298;53.164;8.610;2024-03-06T04:30:07;102284.88;;;4.71;72.87
74778;BME280;63298;53.164;8.610;2024-03-06T04:32:38;102292.09;;;4.80;72.90
74778;BME280;63298;53.164;8.610;2024-03-06T04:35:10;102286.59;;;4.72;73.42
74778;BME280;63298;53.164;8.610;2024-03-06T04:37:41;102302.88;;;4.82;72.76
74778;BME280;63298;53.164;8.610;2024-03-06T04:40:07;102290.19;;;4.72;73.21
74778;BME280;63298;53.164;8.610;2024-03-06T04:42:39;102307.31;;;4.83;73.63
74778;BME280;63298;53.164;8.610;2024-03-06T04:45:11;102302.66;;;4.75;72.99
74778;BME280;63298;53.164;8.610;2024-03-06T04:47:39;102311.56;;;4.77;73.01
74778;BME280;63298;53.164;8.610;2024-03-06T04:53:31;102299.19;;;4.65;73.78
74778;BME280;63298;53.164;8.610;2024-03-06T04:55:59;102306.22;;;4.67;73.21
74778;BME280;63298;53.164;8.610;2024-03-06T04:58:24;102308.94;;;4.67;73.53
74778;BME280;63298;53.164;8.610;2024-03-06T05:00:52;102295.78;;;4.63;73.01
74778;BME280;63298;53.164;8.610;2024-03-06T05:03:18;102312.69;;;4.66;74.19
74778;BME280;63298;53.164;8.610;2024-03-06T05:05:57;102298.28;;;4.56;73.61
74778;BME280;63298;53.164;8.610;2024-03-06T05:08:27;102316.13;;;4.68;73.46
74778;BME280;63298;53.164;8.610;2024-03-06T05:10:55;102296.41;;;4.57;73.49
74778;BME280;63298;53.164;8.610;2024-03-06T05:13:29;102306.00;;;4.61;73.57
74778;BME280;63298;53.164;8.610;2024-03-06T05:16:00;102303.72;;;4.48;73.83
74778;BME280;63298;53.164;8.610;2024-03-06T05:18:26;102295.56;;;4.56;73.36
74778;BME280;63298;53.164;8.610;2024-03-06T05:20:57;102301.00;;;4.48;74.29
74778;BME280;63298;53.164;8.610;2024-03-06T05:23:35;102322.50;;;4.51;73.93
74778;BME280;63298;53.164;8.610;2024-03-06T05:26:43;102339.44;;;4.55;74.54
74778;BME280;63298;53.164;8.610;2024-03-06T05:29:27;102334.41;;;4.42;74.85
74778;BME280;63298;53.164;8.610;2024-03-06T05:32:13;102324.63;;;4.40;74.08
74778;BME280;63298;53.164;8.610;2024-03-06T05:34:39;102343.13;;;4.46;74.25
74778;BME280;63298;53.164;8.610;2024-03-06T05:37:07;102330.81;;;4.42;74.78
74778;BME280;63298;53.164;8.610;2024-03-06T05:39:35;102339.38;;;4.47;74.48
74778;BME280;63298;53.164;8.610;2024-03-06T05:42:04;102339.16;;;4.40;74.58
74778;BME280;63298;53.164;8.610;2024-03-06T05:44:33;102354.81;;;4.56;74.14
74778;BME280;63298;53.164;8.610;2024-03-06T05:47:03;102366.84;;;4.63;74.46
74778;BME280;63298;53.164;8.610;2024-03-06T05:49:32;102368.84;;;4.61;74.46
74778;BME280;63298;53.164;8.610;2024-03-06T05:52:00;102352.91;;;4.48;74.56
74778;BME280;63298;53.164;8.610;2024-03-06T05:54:25;102373.59;;;4.59;74.51
74778;BME280;63298;53.164;8.610;2024-03-06T05:56:51;102371.16;;;4.48;74.57
74778;BME280;63298;53.164;8.610;2024-03-06T05:59:18;102380.59;;;4.53;74.92
74778;BME280;63298;53.164;8.610;2024-03-06T06:01:46;102390.66;;;4.53;75.27
74778;BME280;63298;53.164;8.610;2024-03-06T06:04:12;102394.25;;;4.53;75.07
74778;BME280;63298;53.164;8.610;2024-03-06T06:06:37;102399.41;;;4.56;74.52
74778;BME280;63298;53.164;8.610;2024-03-06T06:09:03;102407.97;;;4.61;75.38
74778;BME280;63298;53.164;8.610;2024-03-06T06:11:29;102393.22;;;4.54;74.47
74778;BME280;63298;53.164;8.610;2024-03-06T06:13:55;102409.63;;;4.54;75.43
74778;BME280;63298;53.164;8.610;2024-03-06T06:16:20;102401.38;;;4.46;75.31
74778;BME280;63298;53.164;8.610;2024-03-06T06:18:46;102411.53;;;4.54;75.42
74778;BME280;63298;53.164;8.610;2024-03-06T06:21:11;102414.41;;;4.52;76.07
74778;BME280;63298;53.164;8.610;2024-03-06T06:23:46;102415.78;;;4.56;75.42
74778;BME280;63298;53.164;8.610;2024-03-06T06:26:11;102411.72;;;4.60;75.05
74778;BME280;63298;53.164;8.610;2024-03-06T06:28:37;102416.69;;;4.65;75.31
74778;BME280;63298;53.164;8.610;2024-03-06T06:31:03;102421.16;;;4.66;74.82
74778;BME280;63298;53.164;8.610;2024-03-06T06:33:31;102422.88;;;4.67;74.50
74778;BME280;63298;53.164;8.610;2024-03-06T06:35:56;102418.03;;;4.61;75.01
74778;BME280;63298;53.164;8.610;2024-03-06T06:38:22;102439.97;;;4.69;75.47
74778;BME280;63298;53.164;8.610;2024-03-06T06:40:47;102430.06;;;4.68;75.36
74778;BME280;63298;53.164;8.610;2024-03-06T06:43:15;102425.28;;;4.70;74.74
74778;BME280;63298;53.164;8.610;2024-03-06T06:45:41;102442.91;;;4.75;75.22
74778;BME280;63298;53.164;8.610;2024-03-06T06:48:07;102442.91;;;4.75;75.15
74778;BME280;63298;53.164;8.610;2024-03-06T06:50:32;102446.53;;;4.76;74.25
74778;BME280;63298;53.164;8.610;2024-03-06T06:52:58;102465.06;;;4.90;74.90
74778;BME280;63298;53.164;8.610;2024-03-06T06:55:23;102457.19;;;4.87;74.18
74778;BME280;63298;53.164;8.610;2024-03-06T06:57:49;102453.44;;;4.88;74.75
74778;BME280;63298;53.164;8.610;2024-03-06T12:21:28;102634.19;;;10.60;63.58
74778;BME280;63298;53.164;8.610;2024-03-06T12:24:11;102625.50;;;10.63;63.32
74778;BME280;63298;53.164;8.610;2024-03-06T12:26:41;102635.19;;;10.74;63.58
74778;BME280;63298;53.164;8.610;2024-03-06T12:29:17;102626.91;;;10.74;63.90
74778;BME280;63298;53.164;8.610;2024-03-06T12:31:43;102635.84;;;10.76;63.35
74778;BME280;63298;53.164;8.610;2024-03-06T12:34:13;102628.22;;;10.78;61.63
74778;BME280;63298;53.164;8.610;2024-03-06T12:36:40;102638.09;;;10.87;62.92
74778;BME280;63298;53.164;8.610;2024-03-06T12:39:24;102634.16;;;10.96;63.02
74778;BME280;63298;53.164;8.610;2024-03-06T12:42:16;102627.19;;;11.00;62.22
74778;BME280;63298;53.164;8.610;2024-03-06T12:44:48;102628.06;;;11.01;62.46
74778;BME280;63298;53.164;8.610;2024-03-06T12:47:18;102636.88;;;11.11;61.63
74778;BME280;63298;53.164;8.610;2024-03-06T12:50:07;102642.88;;;11.14;61.80
74778;BME280;63298;53.164;8.610;2024-03-06T12:52:43;102639.00;;;11.09;62.09
74778;BME280;63298;53.164;8.610;2024-03-06T12:55:18;102636.69;;;11.12;61.67
74778;BME280;63298;53.164;8.610;2024-03-06T12:57:51;102628.84;;;11.16;62.19
74778;BME280;63298;53.164;8.610;2024-03-06T13:00:22;102625.22;;;11.15;61.62
74778;BME280;63298;53.164;8.610;2024-03-06T13:03:22;102631.28;;;11.25;61.76
74778;BME280;63298;53.164;8.610;2024-03-06T13:05:47;102624.19;;;11.38;62.09
74778;BME280;63298;53.164;8.610;2024-03-06T13:08:13;102630.22;;;11.48;61.63
74778;BME280;63298;53.164;8.610;2024-03-06T13:11:20;102619.44;;;11.53;61.59
74778;BME280;63298;53.164;8.610;2024-03-06T13:13:44;102618.69;;;11.65;61.51
74778;BME280;63298;53.164;8.610;2024-03-06T13:16:22;102622.56;;;11.71;61.04
74778;BME280;63298;53.164;8.610;2024-03-06T13:18:54;102626.19;;;11.72;60.70
74778;BME280;63298;53.164;8.610;2024-03-06T13:21:20;102630.69;;;11.73;60.43
74778;BME280;63298;53.164;8.610;2024-03-06T13:23:46;102632.41;;;11.74;60.49
74778;BME280;63298;53.164;8.610;2024-03-06T13:26:18;102636.47;;;11.78;59.68
74778;BME280;63298;53.164;8.610;2024-03-06T13:29:01;102635.16;;;11.74;59.42
74778;BME280;63298;53.164;8.610;2024-03-06T13:31:33;102639.00;;;11.79;60.08
74778;BME280;63298;53.164;8.610;2024-03-06T13:34:01;102646.06;;;11.82;60.12
74778;BME280;63298;53.164;8.610;2024-03-06T13:36:30;102639.31;;;11.91;60.11
74778;BME280;63298;53.164;8.610;2024-03-06T13:39:01;102639.75;;;11.94;59.58
74778;BME280;63298;53.164;8.610;2024-03-06T13:41:27;102643.81;;;11.92;59.43
74778;BME280;63298;53.164;8.610;2024-03-06T13:44:32;102645.97;;;11.96;56.07
74778;BME280;63298;53.164;8.610;2024-03-06T13:47:06;102652.78;;;12.00;59.24
74778;BME280;63298;53.164;8.610;2024-03-06T13:49:44;102644.91;;;11.97;59.47
74778;BME280;63298;53.164;8.610;2024-03-06T13:52:18;102651.69;;;11.95;59.91
74778;BME280;63298;53.164;8.610;2024-03-06T13:57:48;102647.13;;;11.81;60.30
74778;BME280;63298;53.164;8.610;2024-03-06T14:00:21;102647.56;;;11.84;60.07
74778;BME280;63298;53.164;8.610;2024-03-06T14:02:47;102650.31;;;11.84;60.21
74778;BME280;63298;53.164;8.610;2024-03-06T14:05:16;102646.25;;;11.80;60.09
74778;BME280;63298;53.164;8.610;2024-03-06T14:11:32;102661.44;;;11.69;59.45
74778;BME280;63298;53.164;8.610;2024-03-06T14:17:00;102652.81;;;11.73;60.20
74778;BME280;63298;53.164;8.610;2024-03-06T14:19:51;102660.13;;;11.65;60.52
74778;BME280;63298;53.164;8.610;2024-03-06T14:22:30;102655.88;;;11.63;60.41
74778;BME280;63298;53.164;8.610;2024-03-06T14:27:55;102650.69;;;11.53;60.57
74778;BME280;63298;53.164;8.610;2024-03-06T14:30:29;102653.47;;;11.53;60.82
74778;BME280;63298;53.164;8.610;2024-03-06T14:32:58;102648.97;;;11.52;60.57
74778;BME280;63298;53.164;8.610;2024-03-06T14:35:46;102654.50;;;11.52;59.77
74778;BME280;63298;53.164;8.610;2024-03-06T14:38:17;102652.34;;;11.48;60.49
74778;BME280;63298;53.164;8.610;2024-03-06T14:40:53;102655.69;;;11.43;60.89
74778;BME280;63298;53.164;8.610;2024-03-06T14:43:30;102653.38;;;11.47;60.97
74778;BME280;63298;53.164;8.610;2024-03-06T14:46:19;102655.97;;;11.48;60.21
74778;BME280;63298;53.164;8.610;2024-03-06T14:49:05;102652.94;;;11.43;60.88
74778;BME280;63298;53.164;8.610;2024-03-06T14:51:31;102662.94;;;11.44;60.38
74778;BME280;63298;53.164;8.610;2024-03-06T14:54:12;102663.59;;;11.46;60.42
74778;BME280;63298;53.164;8.610;2024-03-06T14:56:38;102661.50;;;11.48;61.09
74778;BME280;63298;53.164;8.610;2024-03-06T14:59:11;102668.31;;;11.52;60.46
74778;BME280;63298;53.164;8.610;2024-03-06T15:01:55;102663.84;;;11.51;60.60
74778;BME280;63298;53.164;8.610;2024-03-06T15:04:47;102661.50;;;11.48;61.01
74778;BME280;63298;53.164;8.610;2024-03-06T15:07:15;102658.72;;;11.48;60.81
74778;BME280;63298;53.164;8.610;2024-03-06T15:10:07;102669.78;;;11.48;60.86
74778;BME280;63298;53.164;8.610;2024-03-06T15:12:35;102665.31;;;11.47;61.50
74778;BME280;63298;53.164;8.610;2024-03-06T15:15:03;102671.94;;;11.53;61.23
74778;BME280;63298;53.164;8.610;2024-03-06T15:17:56;102673.59;;;11.47;60.12
74778;BME280;63298;53.164;8.610;2024-03-06T15:23:45;102678.41;;;11.39;61.25
74778;BME280;63298;53.164;8.610;2024-03-06T15:26:11;102678.72;;;11.29;60.93
74778;BME280;63298;53.164;8.610;2024-03-06T15:28:36;102674.25;;;11.28;61.56
74778;BME280;63298;53.164;8.610;2024-03-06T15:31:07;102675.28;;;11.27;61.15
74778;BME280;63298;53.164;8.610;2024-03-06T15:33:39;102684.03;;;11.31;61.25
74778;BME280;63298;53.164;8.610;2024-03-06T15:36:05;102677.59;;;11.23;61.19
74778;BME280;63298;53.164;8.610;2024-03-06T15:38:39;102684.63;;;11.26;61.23
74778;BME280;63298;53.164;8.610;2024-03-06T15:46:56;102686.81;;;11.31;61.64
74778;BME280;63298;53.164;8.610;2024-03-06T15:49:25;102688.53;;;11.32;61.23
74778;BME280;63298;53.164;8.610;2024-03-06T15:51:54;102691.28;;;11.32;61.51
74778;BME280;63298;53.164;8.610;2024-03-06T15:54:37;102687.47;;;11.33;60.78
74778;BME280;63298;53.164;8.610;2024-03-06T15:57:18;102692.13;;;11.32;61.13
74778;BME280;63298;53.164;8.610;2024-03-06T15:59:54;102695.75;;;11.33;61.14
74778;BME280;63298;53.164;8.610;2024-03-06T16:02:20;102685.94;;;11.30;61.17
74778;BME280;63298;53.164;8.610;2024-03-06T16:04:48;102690.84;;;11.28;61.16
74778;BME280;63298;53.164;8.610;2024-03-06T16:07:18;102691.00;;;11.26;61.17
74778;BME280;63298;53.164;8.610;2024-03-06T16:13:13;102688.84;;;11.22;61.47
74778;BME280;63298;53.164;8.610;2024-03-06T16:16:02;102691.19;;;11.25;61.75
74778;BME280;63298;53.164;8.610;2024-03-06T16:19:11;102692.00;;;11.19;61.47
74778;BME280;63298;53.164;8.610;2024-03-06T16:21:42;102694.19;;;11.23;61.42
74778;BME280;63298;53.164;8.610;2024-03-06T16:24:27;102701.53;;;11.16;61.13
74778;BME280;63298;53.164;8.610;2024-03-06T16:27:18;102709.81;;;11.16;61.86
74778;BME280;63298;53.164;8.610;2024-03-06T16:33:08;102711.66;;;11.09;61.31
74778;BME280;63298;53.164;8.610;2024-03-06T16:35:51;102726.34;;;11.10;61.61
74778;BME280;63298;53.164;8.610;2024-03-06T16:38:45;102726.88;;;11.05;61.58
74778;BME280;63298;53.164;8.610;2024-03-06T16:44:12;102726.44;;;11.02;61.17
74778;BME280;63298;53.164;8.610;2024-03-06T16:46:58;102725.28;;;10.96;61.43
74778;BME280;63298;53.164;8.610;2024-03-06T16:49:44;102731.66;;;10.97;61.18
74778;BME280;63298;53.164;8.610;2024-03-06T16:52:10;102731.03;;;10.95;61.33
74778;BME280;63298;53.164;8.610;2024-03-06T16:54:36;102729.69;;;10.91;61.13
74778;BME280;63298;53.164;8.610;2024-03-06T16:57:04;102744.56;;;10.90;61.56
74778;BME280;63298;53.164;8.610;2024-03-06T16:59:30;102741.31;;;10.86;61.26
74778;BME280;63298;53.164;8.610;2024-03-06T17:02:16;102749.13;;;10.82;61.76
74778;BME280;63298;53.164;8.610;2024-03-06T17:04:45;102756.72;;;10.80;61.69
74778;BME280;63298;53.164;8.610;2024-03-06T17:07:18;102755.13;;;10.71;61.35
74778;BME280;63298;53.164;8.610;2024-03-06T17:10:06;102762.53;;;10.71;61.67
74778;BME280;63298;53.164;8.610;2024-03-06T17:12:38;102754.38;;;10.63;61.73
74778;BME280;63298;53.164;8.610;2024-03-06T17:15:07;102756.84;;;10.58;61.87
74778;BME280;63298;53.164;8.610;2024-03-06T17:17:59;102757.97;;;10.49;61.50
74778;BME280;63298;53.164;8.610;2024-03-06T17:20:25;102757.22;;;10.40;62.25
74778;BME280;63298;53.164;8.610;2024-03-06T17:22:50;102761.66;;;10.41;61.58
74778;BME280;63298;53.164;8.610;2024-03-06T17:25:19;102761.41;;;10.36;61.88
74778;BME280;63298;53.164;8.610;2024-03-06T17:28:04;102775.19;;;10.36;62.25
74778;BME280;63298;53.164;8.610;2024-03-06T22:56:52;102978.94;;;5.11;69.08
74778;BME280;63298;53.164;8.610;2024-03-06T22:59:28;102986.28;;;5.10;68.58
74778;BME280;63298;53.164;8.610;2024-03-06T23:01:57;102977.66;;;5.05;68.62
74778;BME280;63298;53.164;8.610;2024-03-06T23:04:26;102986.84;;;5.04;68.92
74778;BME280;63298;53.164;8.610;2024-03-06T23:07:06;102985.28;;;5.02;68.60
74778;BME280;63298;53.164;8.610;2024-03-06T23:09:32;102980.28;;;4.97;69.70
74778;BME280;63298;53.164;8.610;2024-03-06T23:12:05;102974.06;;;4.95;69.29
74778;BME280;63298;53.164;8.610;2024-03-06T23:14:56;102976.66;;;4.97;68.89
74778;BME280;63298;53.164;8.610;2024-03-06T23:17:29;102979.84;;;4.92;68.59
74778;BME280;63298;53.164;8.610;2024-03-06T23:20:07;102975.53;;;4.90;69.87
74778;BME280;63298;53.164;8.610;2024-03-06T23:22:57;102966.63;;;4.88;68.76
74778;BME280;63298;53.164;8.610;2024-03-06T23:25:31;102974.09;;;4.86;69.77
74778;BME280;63298;53.164;8.610;2024-03-06T23:32:03;102973.25;;;4.75;69.53
74778;BME280;63298;53.164;8.610;2024-03-06T23:34:32;102971.94;;;4.79;69.74
74778;BME280;63298;53.164;8.610;2024-03-06T23:37:00;102974.69;;;4.79;69.68
74778;BME280;63298;53.164;8.610;2024-03-06T23:40:09;102976.72;;;4.77;69.04
74778;BME280;63298;53.164;8.610;2024-03-06T23:43:07;102977.84;;;4.75;69.21
74778;BME280;63298;53.164;8.610;2024-03-06T23:45:56;102968.34;;;4.69;69.46
74778;BME280;63298;53.164;8.610;2024-03-06T23:48:47;102974.13;;;4.66;70.25
74778;BME280;63298;53.164;8.610;2024-03-06T23:54:52;102985.78;;;4.59;70.10
74778;BME280;63298;53.164;8.610;2024-03-06T23:57:41;102973.84;;;4.50;70.04
